createdAt,value
2023-06-11T00:00:14.580Z,11.90
2023-06-11T00:03:02.968Z,11.20
2023-06-11T00:05:31.435Z,12.00
2023-06-11T00:08:03.651Z,15.90
2023-06-11T00:10:32.008Z,17.60
2023-06-11T00:13:00.614Z,19.60
2023-06-11T00:15:29.312Z,16.80
2023-06-11T00:17:57.551Z,20.40
2023-06-11T00:20:25.821Z,14.40
2023-06-11T00:22:54.208Z,14.90
2023-06-11T00:25:22.530Z,12.60
2023-06-11T00:27:51.178Z,10.20
2023-06-11T00:30:19.474Z,11.00
2023-06-11T00:32:47.909Z,11.30
2023-06-11T00:35:16.438Z,11.80
2023-06-11T00:37:44.911Z,14.10
2023-06-11T00:40:13.425Z,13.30
2023-06-11T00:42:42.217Z,14.40
2023-06-11T00:45:10.919Z,13.40
2023-06-11T00:47:40.813Z,13.00
2023-06-11T00:50:10.857Z,13.10
2023-06-11T00:52:41.121Z,12.40
2023-06-11T00:55:13.063Z,12.30
2023-06-11T00:57:42.527Z,11.90
2023-06-11T01:00:13.882Z,10.20
2023-06-11T01:02:54.446Z,10.40
2023-06-11T01:05:25.335Z,9.70
2023-06-11T01:07:56.998Z,10.60
2023-06-11T01:10:34.986Z,11.00
2023-06-11T01:13:03.322Z,10.60
2023-06-11T01:15:31.646Z,10.90
2023-06-11T01:18:20.484Z,10.10
2023-06-11T01:21:18.505Z,9.40
2023-06-11T01:24:18.304Z,10.00
2023-06-11T01:26:46.766Z,9.60
2023-06-11T01:29:16.477Z,11.10
2023-06-11T01:31:45.651Z,10.70
2023-06-11T01:34:15.280Z,9.90
2023-06-11T01:36:44.855Z,10.00
2023-06-11T01:39:13.742Z,10.50
2023-06-11T01:41:47.567Z,11.00
2023-06-11T01:44:21.467Z,10.30
2023-06-11T01:46:49.912Z,9.20
2023-06-11T01:49:19.028Z,9.80
2023-06-11T01:51:47.606Z,9.80
2023-06-11T01:54:15.928Z,9.90
2023-06-11T01:56:45.026Z,9.90
2023-06-11T01:59:19.142Z,10.20
2023-06-11T02:01:54.313Z,10.50
2023-06-11T02:04:23.922Z,10.10
2023-06-11T02:06:52.525Z,10.20
2023-06-11T02:09:20.880Z,9.60
2023-06-11T02:11:49.276Z,9.70
2023-06-11T02:14:17.918Z,9.30
2023-06-11T02:16:46.291Z,9.40
2023-06-11T02:19:14.696Z,9.40
2023-06-11T02:21:44.493Z,9.70
2023-06-11T02:24:12.875Z,9.90
2023-06-11T02:26:41.236Z,9.30
2023-06-11T02:29:09.510Z,10.20
2023-06-11T02:31:37.732Z,9.60
2023-06-11T02:34:06.367Z,9.10
2023-06-11T02:36:35.882Z,9.10
2023-06-11T02:39:04.763Z,9.10
2023-06-11T02:41:33.123Z,9.10
2023-06-11T02:44:01.440Z,9.80
2023-06-11T02:46:29.768Z,10.50
2023-06-11T02:48:58.055Z,11.00
2023-06-11T02:51:26.376Z,10.50
2023-06-11T02:53:54.695Z,10.40
2023-06-11T02:56:23.269Z,9.20
2023-06-11T02:58:51.762Z,8.90
2023-06-11T03:01:20.099Z,9.70
2023-06-11T03:03:48.637Z,9.80
2023-06-11T03:06:20.680Z,10.10
2023-06-11T03:08:49.221Z,9.40
2023-06-11T03:11:17.873Z,9.20
2023-06-11T03:13:47.700Z,8.80
2023-06-11T03:16:16.276Z,8.20
2023-06-11T03:18:45.031Z,9.00
2023-06-11T03:21:13.396Z,8.30
2023-06-11T03:23:41.830Z,8.50
2023-06-11T03:26:10.408Z,8.60
2023-06-11T03:31:12.009Z,9.20
2023-06-11T03:33:40.674Z,9.70
2023-06-11T03:36:11.336Z,8.40
2023-06-11T03:38:40.075Z,7.60
2023-06-11T03:41:11.969Z,8.50
2023-06-11T03:43:40.575Z,8.80
2023-06-11T03:46:08.958Z,9.60
2023-06-11T03:48:37.600Z,10.80
2023-06-11T03:51:06.043Z,11.60
2023-06-11T03:53:34.433Z,11.80
2023-06-11T03:56:02.776Z,11.80
2023-06-11T03:58:31.430Z,11.60
2023-06-11T04:00:59.900Z,11.30
2023-06-11T04:03:28.710Z,11.30
2023-06-11T04:05:57.104Z,11.10
2023-06-11T04:08:25.540Z,10.30
2023-06-11T04:10:54.492Z,11.00
2023-06-11T04:13:23.063Z,10.10
2023-06-11T04:15:51.485Z,9.30
2023-06-11T04:18:19.842Z,8.80
2023-06-11T04:20:50.431Z,8.30
2023-06-11T04:23:21.399Z,8.40
2023-06-11T04:25:50.413Z,7.90
2023-06-11T04:28:20.660Z,8.20
2023-06-11T04:30:50.117Z,8.50
2023-06-11T04:33:18.903Z,8.60
2023-06-11T04:35:49.452Z,9.20
2023-06-11T04:38:19.336Z,9.40
2023-06-11T04:40:48.007Z,8.50
2023-06-11T04:43:16.362Z,8.20
2023-06-11T04:45:44.941Z,7.70
2023-06-11T04:48:14.497Z,9.40
2023-06-11T04:50:43.592Z,9.20
2023-06-11T04:53:14.393Z,10.10
2023-06-11T04:55:42.990Z,8.70
2023-06-11T04:58:11.477Z,8.70
2023-06-11T05:00:40.295Z,8.40
2023-06-11T05:03:09.075Z,8.50
2023-06-11T05:05:39.666Z,8.10
2023-06-11T05:08:07.990Z,7.60
2023-06-11T05:10:38.904Z,8.10
2023-06-11T05:13:07.536Z,9.70
2023-06-11T05:15:36.119Z,10.50
2023-06-11T05:18:04.780Z,10.30
2023-06-11T05:20:33.779Z,10.00
2023-06-11T05:23:04.552Z,8.70
2023-06-11T05:25:36.670Z,9.00
2023-06-11T05:28:09.261Z,9.20
2023-06-11T05:30:38.378Z,9.90
2023-06-11T05:33:09.146Z,8.90
2023-06-11T05:35:38.901Z,8.90
2023-06-11T05:38:07.636Z,8.60
2023-06-11T05:40:40.276Z,10.00
2023-06-11T05:43:08.662Z,10.90
2023-06-11T05:45:37.769Z,11.00
2023-06-11T05:48:07.592Z,8.70
2023-06-11T05:50:38.098Z,8.20
2023-06-11T05:53:07.193Z,7.80
2023-06-11T05:55:36.785Z,7.80
2023-06-11T05:58:06.536Z,8.60
2023-06-11T06:00:34.972Z,7.70
2023-06-11T06:03:05.454Z,8.60
2023-06-11T06:05:34.449Z,8.50
2023-06-11T06:08:02.876Z,8.50
2023-06-11T06:10:32.159Z,7.60
2023-06-11T06:13:00.597Z,7.60
2023-06-11T06:15:29.106Z,7.80
2023-06-11T06:17:57.555Z,8.30
2023-06-11T06:20:35.621Z,8.30
2023-06-11T06:23:03.931Z,8.30
2023-06-11T06:25:33.487Z,8.20
2023-06-11T06:28:02.154Z,8.10
2023-06-11T06:30:33.869Z,8.60
2023-06-11T06:33:02.740Z,8.60
2023-06-11T06:35:34.754Z,8.10
2023-06-11T06:38:03.785Z,8.00
2023-06-11T06:40:32.565Z,9.40
2023-06-11T06:43:01.171Z,7.20
2023-06-11T06:45:34.735Z,7.40
2023-06-11T06:48:07.610Z,7.90
2023-06-11T06:50:36.189Z,7.60
2023-06-11T06:53:04.411Z,7.80
2023-06-11T06:55:33.060Z,7.50
2023-06-11T06:58:05.738Z,7.90
2023-06-11T07:00:34.443Z,7.10
2023-06-11T07:03:02.964Z,7.70
2023-06-11T07:05:31.915Z,7.80
2023-06-11T07:08:00.636Z,7.60
2023-06-11T07:10:31.467Z,7.70
2023-06-11T07:13:00.723Z,7.30
2023-06-11T07:15:29.592Z,7.50
2023-06-11T07:17:58.189Z,8.20
2023-06-11T07:20:26.774Z,8.10
2023-06-11T07:22:55.282Z,8.00
2023-06-11T07:25:24.236Z,7.50
2023-06-11T07:27:52.650Z,7.90
2023-06-11T07:30:21.622Z,8.50
2023-06-11T07:32:50.188Z,7.40
2023-06-11T07:35:18.680Z,6.70
2023-06-11T07:37:47.053Z,7.00
2023-06-11T07:40:17.300Z,7.20
2023-06-11T07:42:46.878Z,6.40
2023-06-11T07:45:16.287Z,7.20
2023-06-11T07:47:47.664Z,6.60
2023-06-11T07:50:16.115Z,6.70
2023-06-11T07:52:45.076Z,6.90
2023-06-11T07:55:19.266Z,7.10
2023-06-11T07:57:47.636Z,6.40
2023-06-11T08:00:18.451Z,7.50
2023-06-11T08:02:47.690Z,8.00
2023-06-11T08:05:19.171Z,7.10
2023-06-11T08:07:50.568Z,7.50
2023-06-11T08:10:19.083Z,7.00
2023-06-11T08:12:47.497Z,7.80
2023-06-11T08:15:15.908Z,7.50
2023-06-11T08:17:44.901Z,8.60
2023-06-11T08:20:13.744Z,6.80
2023-06-11T08:22:42.834Z,8.10
2023-06-11T08:25:12.297Z,6.80
2023-06-11T08:27:40.784Z,7.10
2023-06-11T08:30:10.840Z,7.60
2023-06-11T08:32:39.666Z,7.90
2023-06-11T08:35:09.274Z,7.00
2023-06-11T08:37:37.707Z,7.00
2023-06-11T08:40:10.261Z,7.70
2023-06-11T08:42:38.927Z,6.90
2023-06-11T08:45:08.250Z,6.60
2023-06-11T08:47:42.168Z,6.40
2023-06-11T08:50:11.791Z,6.20
2023-06-11T08:52:43.093Z,6.10
2023-06-11T08:55:11.764Z,6.50
2023-06-11T08:57:40.046Z,6.00
2023-06-11T09:00:11.461Z,6.00
2023-06-11T09:02:40.714Z,7.00
2023-06-11T09:05:10.217Z,5.70
2023-06-11T09:07:38.886Z,6.20
2023-06-11T09:10:12.129Z,6.40
2023-06-11T09:12:40.776Z,5.90
2023-06-11T09:15:10.877Z,5.60
2023-06-11T09:17:42.252Z,5.40
2023-06-11T09:20:16.639Z,5.70
2023-06-11T09:22:46.944Z,5.20
2023-06-11T09:25:19.668Z,5.60
2023-06-11T09:27:51.698Z,6.00
2023-06-11T09:30:21.172Z,5.70
2023-06-11T09:32:50.552Z,5.70
2023-06-11T09:35:22.182Z,5.90
2023-06-11T09:37:52.998Z,5.20
2023-06-11T09:40:24.902Z,5.40
2023-06-11T09:45:22.794Z,6.10
2023-06-11T09:47:52.896Z,6.00
2023-06-11T09:50:23.152Z,6.00
2023-06-11T09:52:53.753Z,5.90
2023-06-11T09:55:23.015Z,6.30
2023-06-11T09:57:54.328Z,5.70
2023-06-11T10:00:23.363Z,6.90
2023-06-11T10:02:51.853Z,6.50
2023-06-11T10:05:21.770Z,6.00
2023-06-11T10:08:13.675Z,6.90
2023-06-11T10:10:45.944Z,6.20
2023-06-11T10:15:56.158Z,6.20
2023-06-11T10:18:28.267Z,6.80
2023-06-11T10:21:00.284Z,6.10
2023-06-11T10:23:41.622Z,6.10
2023-06-11T10:26:11.579Z,5.50
2023-06-11T10:28:46.204Z,5.90
2023-06-11T10:31:28.817Z,5.80
2023-06-11T10:34:07.512Z,6.10
2023-06-11T10:36:40.072Z,5.80
2023-06-11T10:39:21.569Z,7.30
2023-06-11T10:42:01.324Z,5.70
2023-06-11T10:44:31.039Z,5.60
2023-06-11T10:47:01.943Z,5.50
2023-06-11T10:49:30.519Z,6.00
2023-06-11T10:52:03.343Z,4.80
2023-06-11T10:54:36.063Z,4.50
2023-06-11T10:57:05.257Z,7.60
2023-06-11T10:59:33.720Z,5.30
2023-06-11T11:02:02.095Z,4.60
2023-06-11T11:04:30.471Z,4.30
2023-06-11T11:07:11.961Z,4.70
2023-06-11T11:09:40.546Z,5.90
2023-06-11T11:12:09.373Z,4.90
2023-06-11T11:14:37.809Z,5.60
2023-06-11T11:17:07.138Z,6.20
2023-06-11T11:19:37.328Z,7.50
2023-06-11T11:22:06.109Z,6.10
2023-06-11T11:24:38.305Z,6.50
2023-06-11T11:27:09.370Z,6.80
2023-06-11T11:29:38.446Z,4.90
2023-06-11T11:32:07.668Z,4.40
2023-06-11T11:34:40.500Z,5.00
2023-06-11T11:37:08.836Z,5.30
2023-06-11T11:39:38.068Z,5.90
2023-06-11T11:42:10.995Z,5.20
2023-06-11T11:44:41.031Z,4.80
2023-06-11T11:47:10.712Z,4.40
2023-06-11T11:49:39.501Z,4.70
2023-06-11T11:52:08.661Z,4.70
2023-06-11T11:54:43.099Z,4.50
2023-06-11T11:57:13.133Z,4.30
2023-06-11T11:59:41.668Z,4.90
2023-06-11T12:02:10.793Z,4.70
2023-06-11T12:04:41.692Z,5.10
2023-06-11T12:07:15.058Z,4.20
2023-06-11T12:09:43.529Z,4.00
2023-06-11T12:12:11.958Z,3.80
2023-06-11T12:14:40.234Z,4.00
2023-06-11T12:17:12.610Z,3.60
2023-06-11T12:19:41.073Z,3.80
2023-06-11T12:22:09.530Z,4.00
2023-06-11T12:24:37.959Z,4.40
2023-06-11T12:27:12.258Z,4.60
2023-06-11T12:29:41.698Z,4.00
2023-06-11T12:32:14.613Z,3.80
2023-06-11T12:34:42.994Z,3.50
2023-06-11T12:37:12.275Z,3.80
2023-06-11T12:39:44.799Z,3.60
2023-06-11T12:42:15.558Z,3.40
2023-06-11T12:44:44.819Z,3.50
2023-06-11T12:47:13.139Z,4.00
2023-06-11T12:49:41.543Z,3.70
2023-06-11T12:52:13.702Z,3.70
2023-06-11T12:54:42.150Z,3.40
2023-06-11T12:57:12.633Z,3.10
2023-06-11T12:59:41.104Z,3.20
2023-06-11T13:02:13.680Z,3.40
2023-06-11T13:04:44.134Z,3.20
2023-06-11T13:07:14.303Z,3.10
2023-06-11T13:09:42.741Z,3.40
2023-06-11T13:12:11.569Z,3.30
2023-06-11T13:14:39.820Z,3.10
2023-06-11T13:17:08.151Z,3.50
2023-06-11T13:19:37.079Z,3.30
2023-06-11T13:22:06.418Z,3.30
2023-06-11T13:24:34.752Z,3.90
2023-06-11T13:27:03.250Z,3.40
2023-06-11T13:29:31.506Z,3.80
2023-06-11T13:31:59.786Z,3.90
2023-06-11T13:34:28.205Z,4.20
2023-06-11T13:36:59.401Z,4.30
2023-06-11T13:39:27.804Z,3.80
2023-06-11T13:41:56.154Z,5.10
2023-06-11T13:44:25.571Z,3.90
2023-06-11T13:46:54.046Z,29.30
2023-06-11T13:49:24.161Z,13.90
2023-06-11T13:51:53.606Z,15.50
2023-06-11T13:54:21.956Z,21.10
2023-06-11T13:56:50.293Z,7.30
2023-06-11T13:59:20.825Z,12.20
2023-06-11T14:01:49.099Z,10.70
2023-06-11T14:04:18.352Z,5.90
2023-06-11T14:06:46.774Z,6.30
2023-06-11T14:09:15.987Z,5.40
2023-06-11T14:11:44.376Z,4.60
2023-06-11T14:14:13.876Z,5.10
2023-06-11T14:16:42.459Z,4.20
2023-06-11T14:19:11.613Z,5.60
2023-06-11T14:21:40.079Z,6.40
2023-06-11T14:24:10.725Z,5.60
2023-06-11T14:26:39.103Z,4.80
2023-06-11T14:29:07.390Z,5.80
2023-06-11T14:31:36.347Z,5.30
2023-06-11T14:34:04.729Z,5.50
2023-06-11T14:36:33.002Z,13.70
2023-06-11T14:39:01.325Z,5.40
2023-06-11T14:41:29.622Z,5.10
2023-06-11T14:43:57.994Z,8.60
2023-06-11T14:46:27.033Z,11.40
2023-06-11T14:48:55.350Z,6.00
2023-06-11T14:51:24.334Z,10.10
2023-06-11T14:53:52.791Z,5.40
2023-06-11T14:56:22.310Z,5.70
2023-06-11T14:58:50.608Z,5.30
2023-06-11T15:01:19.057Z,6.50
2023-06-11T15:03:47.413Z,4.80
2023-06-11T15:06:15.763Z,5.40
2023-06-11T15:08:44.118Z,5.30
2023-06-11T15:11:12.628Z,5.70
2023-06-11T15:13:42.208Z,5.60
2023-06-11T15:16:10.623Z,5.20
2023-06-11T15:18:38.966Z,5.10
2023-06-11T15:21:07.235Z,5.00
2023-06-11T15:23:36.068Z,4.90
2023-06-11T15:26:04.527Z,7.40
2023-06-11T15:28:32.803Z,5.10
2023-06-11T15:31:01.501Z,6.40
2023-06-11T15:33:29.810Z,13.10
2023-06-11T15:35:58.190Z,30.20
2023-06-11T15:38:28.474Z,16.30
2023-06-11T15:40:57.793Z,29.70
2023-06-11T15:43:26.145Z,34.50
2023-06-11T15:45:54.464Z,9.80
2023-06-11T15:48:23.238Z,12.90
2023-06-11T15:50:51.780Z,6.90
2023-06-11T15:53:20.138Z,8.30
2023-06-11T15:55:48.502Z,9.60
2023-06-11T15:58:16.881Z,8.60
2023-06-11T16:00:45.979Z,6.10
2023-06-11T16:03:16.092Z,11.40
2023-06-11T16:05:44.352Z,34.40
2023-06-11T16:08:12.629Z,18.70
2023-06-11T16:10:41.375Z,12.40
2023-06-11T16:13:09.812Z,12.40
2023-06-11T16:15:38.922Z,18.70
2023-06-11T16:18:07.337Z,8.90
2023-06-11T16:20:35.973Z,19.30
2023-06-11T16:23:04.439Z,25.30
2023-06-11T16:25:32.702Z,15.80
2023-06-11T16:28:01.074Z,11.20
2023-06-11T16:30:30.731Z,23.70
2023-06-11T16:32:59.233Z,19.60
2023-06-11T16:35:28.364Z,19.90
2023-06-11T16:37:56.690Z,16.80
2023-06-11T16:40:25.078Z,35.30
2023-06-11T16:42:53.421Z,35.70
2023-06-11T16:45:21.858Z,16.80
2023-06-11T16:47:50.329Z,14.10
2023-06-11T16:50:18.955Z,8.10
2023-06-11T16:52:49.690Z,7.80
2023-06-11T16:55:21.448Z,11.80
2023-06-11T16:57:50.671Z,7.00
2023-06-11T17:00:19.657Z,6.20
2023-06-11T17:02:50.631Z,8.20
2023-06-11T17:05:19.440Z,6.00
2023-06-11T17:07:51.319Z,5.90
2023-06-11T17:10:19.582Z,8.20
2023-06-11T17:12:48.087Z,7.40
2023-06-11T17:15:17.571Z,7.80
2023-06-11T17:17:47.034Z,6.70
2023-06-11T17:20:16.301Z,6.90
2023-06-11T17:22:46.761Z,6.50
2023-06-11T17:25:16.020Z,6.00
2023-06-11T17:27:44.997Z,6.20
2023-06-11T17:30:13.578Z,6.20
2023-06-11T17:32:42.523Z,6.30
2023-06-11T17:35:11.374Z,6.10
2023-06-11T17:37:40.034Z,5.90
2023-06-11T17:40:09.208Z,5.60
2023-06-11T17:42:42.644Z,5.70
2023-06-11T17:45:12.138Z,6.00
2023-06-11T17:47:40.917Z,5.60
2023-06-11T17:50:11.824Z,5.90
2023-06-11T17:52:40.770Z,5.10
2023-06-11T17:55:14.278Z,5.50
2023-06-11T17:57:47.481Z,5.70
2023-06-11T18:00:17.951Z,5.70
2023-06-11T18:02:48.251Z,5.90
2023-06-11T18:05:16.732Z,5.90
2023-06-11T18:07:48.107Z,4.90
2023-06-11T18:10:17.321Z,4.70
2023-06-11T18:12:45.891Z,5.50
2023-06-11T18:17:45.562Z,5.20
2023-06-11T18:20:13.967Z,6.00
2023-06-11T18:22:43.831Z,5.70
2023-06-11T18:25:12.830Z,5.50
2023-06-11T18:27:41.793Z,5.50
2023-06-11T18:30:10.555Z,5.40
2023-06-11T18:32:39.383Z,5.60
2023-06-11T18:35:08.127Z,5.30
2023-06-11T18:37:36.397Z,12.50
2023-06-11T18:40:06.163Z,12.40
2023-06-11T18:42:34.434Z,4.00
2023-06-11T18:45:02.791Z,3.70
2023-06-11T18:47:31.423Z,2.90
2023-06-11T18:49:59.811Z,3.80
2023-06-11T18:52:28.143Z,4.50
2023-06-11T18:54:56.487Z,5.60
2023-06-11T18:57:27.819Z,4.00
2023-06-11T18:59:56.818Z,4.10
2023-06-11T19:02:25.281Z,13.10
2023-06-11T19:04:55.779Z,20.70
2023-06-11T19:07:24.453Z,10.60
2023-06-11T19:09:53.157Z,6.20
2023-06-11T19:12:21.522Z,4.10
2023-06-11T19:14:50.584Z,12.80
2023-06-11T19:17:19.231Z,13.80
2023-06-11T19:19:47.547Z,8.30
2023-06-11T19:22:15.895Z,5.30
2023-06-11T19:24:44.182Z,4.70
2023-06-11T19:27:13.132Z,3.70
2023-06-11T19:29:41.520Z,3.50
2023-06-11T19:32:11.778Z,3.60
2023-06-11T19:34:40.156Z,3.60
2023-06-11T19:37:08.583Z,3.80
2023-06-11T19:39:36.855Z,3.30
2023-06-11T19:42:05.448Z,2.90
2023-06-11T19:44:34.081Z,2.80
2023-06-11T19:47:02.507Z,2.90
2023-06-11T19:49:31.082Z,2.80
2023-06-11T19:51:59.351Z,3.00
2023-06-11T19:54:45.903Z,3.00
2023-06-11T19:57:18.916Z,2.70
2023-06-11T19:59:48.547Z,2.40
2023-06-11T20:02:17.030Z,2.80
2023-06-11T20:04:46.779Z,2.50
2023-06-11T20:07:17.139Z,3.00
2023-06-11T20:09:46.658Z,2.80
2023-06-11T20:12:14.997Z,2.50
2023-06-11T20:14:43.354Z,3.10
2023-06-11T20:17:11.836Z,2.50
2023-06-11T20:19:40.650Z,2.80
2023-06-11T20:22:08.922Z,2.90
2023-06-11T20:24:37.301Z,2.60
2023-06-11T20:27:06.557Z,2.40
2023-06-11T20:29:36.100Z,2.50
2023-06-11T20:32:05.213Z,2.70
2023-06-11T20:34:33.621Z,2.30
2023-06-11T20:37:02.111Z,2.50
2023-06-11T20:39:30.329Z,2.60
2023-06-11T20:41:58.749Z,3.00
2023-06-11T20:44:27.415Z,3.90
2023-06-11T20:46:55.738Z,3.80
2023-06-11T20:49:24.054Z,3.30
2023-06-11T20:51:52.400Z,5.10
2023-06-11T20:54:21.130Z,7.30
2023-06-11T20:56:49.365Z,6.40
2023-06-11T20:59:18.186Z,3.60
2023-06-11T21:01:46.768Z,2.20
2023-06-11T21:04:15.176Z,2.80
2023-06-11T21:06:43.792Z,2.20
2023-06-11T21:09:12.147Z,1.30
2023-06-11T21:11:40.531Z,1.00
2023-06-11T21:14:13.390Z,0.60
2023-06-11T21:16:43.100Z,0.90
2023-06-11T21:19:11.712Z,1.00
2023-06-11T21:21:40.052Z,0.80
2023-06-11T21:24:08.875Z,1.10
2023-06-11T21:26:37.519Z,1.20
2023-06-11T21:29:08.978Z,1.00
2023-06-11T21:31:37.232Z,1.20
2023-06-11T21:34:05.642Z,1.10
2023-06-11T21:36:33.920Z,0.90
2023-06-11T21:39:02.349Z,0.80
2023-06-11T21:41:30.679Z,1.30
2023-06-11T21:43:58.989Z,1.00
2023-06-11T21:46:27.345Z,1.00
2023-06-11T21:48:55.781Z,1.30
2023-06-11T21:51:26.690Z,1.20
2023-06-11T21:53:55.032Z,1.00
2023-06-11T21:56:23.388Z,1.00
2023-06-11T21:58:51.664Z,0.90
2023-06-11T22:01:19.987Z,1.00
2023-06-11T22:03:48.418Z,0.80
2023-06-11T22:06:17.046Z,1.00
2023-06-11T22:08:45.802Z,0.80
2023-06-11T22:11:14.201Z,0.90
2023-06-11T22:13:42.438Z,0.90
2023-06-11T22:16:10.759Z,1.00
2023-06-11T22:18:39.726Z,1.00
2023-06-11T22:21:07.943Z,0.90
2023-06-11T22:23:50.353Z,0.70
2023-06-11T22:26:22.890Z,0.70
2023-06-11T22:28:51.862Z,0.80
2023-06-11T22:31:20.126Z,0.80
2023-06-11T22:33:48.584Z,0.80
2023-06-11T22:36:16.893Z,1.10
2023-06-11T22:38:45.212Z,1.40
2023-06-11T22:41:13.480Z,1.40
2023-06-11T22:43:41.734Z,1.90
2023-06-11T22:46:10.149Z,1.70
2023-06-11T22:48:38.423Z,1.80
2023-06-11T22:51:11.187Z,1.80
2023-06-11T22:53:40.172Z,1.70
2023-06-11T22:56:08.502Z,1.50
2023-06-11T22:58:36.730Z,1.80
2023-06-11T23:01:05.092Z,1.60
2023-06-11T23:03:33.532Z,1.70
2023-06-11T23:06:02.251Z,1.70
2023-06-11T23:08:30.551Z,2.10
2023-06-11T23:10:58.844Z,1.50
2023-06-11T23:13:27.088Z,1.80
2023-06-11T23:15:55.706Z,1.80
2023-06-11T23:18:26.187Z,1.90
2023-06-11T23:20:54.875Z,1.50
2023-06-11T23:23:23.741Z,1.70
2023-06-11T23:25:53.919Z,1.60
2023-06-11T23:28:24.094Z,2.00
2023-06-11T23:30:53.947Z,1.90
2023-06-11T23:33:23.606Z,2.10
2023-06-11T23:35:52.860Z,2.40
2023-06-11T23:38:21.070Z,2.30
2023-06-11T23:40:50.087Z,2.40
2023-06-11T23:43:18.593Z,2.30
2023-06-11T23:45:47.077Z,2.00
2023-06-11T23:48:15.759Z,2.20
2023-06-11T23:50:44.973Z,2.80
2023-06-11T23:53:13.413Z,2.20
2023-06-11T23:55:44.750Z,2.30
2023-06-11T23:58:21.392Z,1.90
